createdAt,value
2019-02-14T00:01:52.539Z,95576.23
2019-02-14T00:04:20.371Z,95572.72
2019-02-14T00:06:48.336Z,95567.55
2019-02-14T00:09:16.599Z,95568.47
2019-02-14T00:11:44.494Z,95566.43
2019-02-14T00:14:12.364Z,95557.76
2019-02-14T00:16:40.221Z,95560.34
2019-02-14T00:19:08.127Z,95559.25
2019-02-14T00:21:36.019Z,95549.48
2019-02-14T00:24:03.887Z,95548.19
2019-02-14T00:26:31.725Z,95550.39
2019-02-14T00:28:59.639Z,95545.88
2019-02-14T00:31:27.492Z,95538.77
2019-02-14T00:33:55.386Z,95545.76
2019-02-14T00:36:23.274Z,95540.77
2019-02-14T00:38:51.158Z,95544.09
2019-02-14T00:41:19.008Z,95539.77
2019-02-14T00:43:46.917Z,95536.69
2019-02-14T00:46:14.992Z,95542.77
2019-02-14T00:48:42.819Z,95547.02
2019-02-14T00:51:10.695Z,95549.41
2019-02-14T00:53:38.811Z,95551.98
2019-02-14T00:56:06.624Z,95547.20
2019-02-14T00:58:34.490Z,95547.30
2019-02-14T01:01:02.600Z,95550.28
2019-02-14T01:03:30.438Z,95546.52
2019-02-14T01:05:58.390Z,95534.91
2019-02-14T01:08:26.278Z,95546.31
2019-02-14T01:10:54.155Z,95548.80
2019-02-14T01:13:23.079Z,95550.36
2019-02-14T01:15:51.394Z,95551.67
2019-02-14T01:18:19.228Z,95549.48
2019-02-14T01:20:47.072Z,95536.92
2019-02-14T01:23:15.247Z,95532.88
2019-02-14T01:25:43.116Z,95537.66
2019-02-14T01:28:10.948Z,95541.43
2019-02-14T01:30:38.823Z,95538.23
2019-02-14T01:33:06.683Z,95536.20
2019-02-14T01:35:41.781Z,95543.57
2019-02-14T01:38:04.599Z,95542.46
2019-02-14T01:40:32.473Z,95543.34
2019-02-14T01:43:00.350Z,95541.52
2019-02-14T01:45:28.254Z,95541.52
2019-02-14T01:47:56.049Z,95533.56
2019-02-14T01:50:23.880Z,95537.98
2019-02-14T01:52:51.728Z,95535.77
2019-02-14T01:55:19.649Z,95534.12
2019-02-14T01:57:47.504Z,95536.13
2019-02-14T02:00:16.673Z,95536.30
2019-02-14T02:02:44.516Z,95541.30
2019-02-14T02:05:12.407Z,95532.97
2019-02-14T02:07:40.602Z,95532.67
2019-02-14T02:10:10.398Z,95530.36
2019-02-14T02:12:38.396Z,95528.31
2019-02-14T02:15:09.358Z,95520.95
2019-02-14T02:17:38.120Z,95524.53
2019-02-14T02:20:06.942Z,95523.31
2019-02-14T02:22:34.878Z,95525.59
2019-02-14T02:25:03.860Z,95524.85
2019-02-14T02:27:31.690Z,95522.64
2019-02-14T02:29:59.560Z,95524.66
2019-02-14T02:32:27.476Z,95517.09
2019-02-14T02:34:55.307Z,95524.08
2019-02-14T02:37:23.153Z,95519.10
2019-02-14T02:39:50.978Z,95518.56
2019-02-14T02:42:18.819Z,95521.71
2019-02-14T02:44:48.564Z,95521.38
2019-02-14T02:47:16.583Z,95518.81
2019-02-14T02:49:47.236Z,95525.43
2019-02-14T02:52:16.912Z,95521.40
2019-02-14T02:54:44.754Z,95521.10
2019-02-14T02:57:12.608Z,95525.81
2019-02-14T02:59:40.475Z,95522.64
2019-02-14T03:02:08.585Z,95519.34
2019-02-14T03:04:36.395Z,95516.36
2019-02-14T03:07:04.423Z,95518.56
2019-02-14T03:09:32.355Z,95513.94
2019-02-14T03:12:00.190Z,95511.90
2019-02-14T03:14:28.031Z,95513.38
2019-02-14T03:16:55.896Z,95515.58
2019-02-14T03:19:23.692Z,95521.27
2019-02-14T03:21:51.548Z,95509.86
2019-02-14T03:24:19.356Z,95515.73
2019-02-14T03:26:47.223Z,95508.66
2019-02-14T03:29:15.386Z,95510.59
2019-02-14T03:31:43.252Z,95505.09
2019-02-14T03:34:11.174Z,95502.84
2019-02-14T03:36:39.078Z,95504.22
2019-02-14T03:39:06.919Z,95508.61
2019-02-14T03:41:34.789Z,95507.44
2019-02-14T03:44:02.687Z,95506.98
2019-02-14T03:46:30.567Z,95499.35
2019-02-14T03:48:58.377Z,95508.60
2019-02-14T03:51:26.247Z,95506.93
2019-02-14T03:53:54.136Z,95507.30
2019-02-14T03:56:22.076Z,95511.55
2019-02-14T03:58:49.902Z,95514.02
2019-02-14T04:01:17.748Z,95512.94
2019-02-14T04:03:45.595Z,95511.80
2019-02-14T04:06:13.406Z,95508.84
2019-02-14T04:08:41.315Z,95508.12
2019-02-14T04:11:09.152Z,95513.62
2019-02-14T04:13:37.006Z,95506.98
2019-02-14T04:16:04.873Z,95509.91
2019-02-14T04:18:32.749Z,95512.66
2019-02-14T04:21:03.288Z,95510.95
2019-02-14T04:23:31.152Z,95516.30
2019-02-14T04:25:58.975Z,95515.73
2019-02-14T04:28:26.843Z,95511.52
2019-02-14T04:30:54.676Z,95506.85
2019-02-14T04:33:22.529Z,95509.28
2019-02-14T04:35:50.338Z,95510.50
2019-02-14T04:38:18.530Z,95507.53
2019-02-14T04:40:46.384Z,95506.70
2019-02-14T04:43:14.213Z,95504.85
2019-02-14T04:45:42.067Z,95506.85
2019-02-14T04:48:09.929Z,95500.97
2019-02-14T04:50:37.802Z,95501.12
2019-02-14T04:53:05.688Z,95495.64
2019-02-14T04:55:36.080Z,95502.98
2019-02-14T04:58:03.959Z,95506.47
2019-02-14T05:00:31.843Z,95506.85
2019-02-14T05:02:59.652Z,95499.13
2019-02-14T05:05:27.488Z,95498.63
2019-02-14T05:07:55.464Z,95498.97
2019-02-14T05:10:23.326Z,95496.52
2019-02-14T05:12:51.169Z,95485.45
2019-02-14T05:15:19.090Z,95492.88
2019-02-14T05:17:46.946Z,95486.52
2019-02-14T05:20:14.755Z,95497.20
2019-02-14T05:22:42.643Z,95495.64
2019-02-14T05:25:10.770Z,95496.64
2019-02-14T05:27:38.586Z,95497.18
2019-02-14T05:30:09.226Z,95502.06
2019-02-14T05:32:37.080Z,95508.14
2019-02-14T05:35:05.435Z,95503.81
2019-02-14T05:37:33.377Z,95507.68
2019-02-14T05:40:01.255Z,95505.30
2019-02-14T05:42:29.082Z,95502.28
2019-02-14T05:44:56.950Z,95501.77
2019-02-14T05:47:24.809Z,95500.80
2019-02-14T05:49:54.431Z,95508.06
2019-02-14T05:52:22.356Z,95503.73
2019-02-14T05:54:50.192Z,95515.02
2019-02-14T05:57:18.062Z,95518.91
2019-02-14T05:59:45.898Z,95520.55
2019-02-14T06:02:15.635Z,95526.46
2019-02-14T06:04:43.501Z,95532.00
2019-02-14T06:07:11.387Z,95530.67
2019-02-14T06:09:39.227Z,95538.94
2019-02-14T06:12:07.086Z,95537.81
2019-02-14T06:14:35.191Z,95534.66
2019-02-14T06:17:05.444Z,95533.78
2019-02-14T06:19:33.307Z,95540.34
2019-02-14T06:22:01.159Z,95538.38
2019-02-14T06:24:29.071Z,95539.66
2019-02-14T06:26:56.891Z,95545.73
2019-02-14T06:29:24.740Z,95553.01
2019-02-14T06:31:52.539Z,95549.98
2019-02-14T06:34:20.437Z,95547.02
2019-02-14T06:36:48.296Z,95552.89
2019-02-14T06:39:16.175Z,95557.09
2019-02-14T06:41:44.013Z,95556.00
2019-02-14T06:44:11.891Z,95549.89
2019-02-14T06:46:39.716Z,95553.08
2019-02-14T06:49:07.620Z,95551.91
2019-02-14T06:51:35.462Z,95552.50
2019-02-14T06:54:03.267Z,95552.25
2019-02-14T06:56:31.115Z,95560.13
2019-02-14T06:58:59.014Z,95561.20
2019-02-14T07:01:26.891Z,95565.75
2019-02-14T07:03:54.755Z,95561.25
2019-02-14T07:06:22.596Z,95558.48
2019-02-14T07:08:50.427Z,95557.71
2019-02-14T07:11:18.266Z,95559.84
2019-02-14T07:13:46.117Z,95562.41
2019-02-14T07:16:13.948Z,95567.23
2019-02-14T07:18:41.811Z,95567.66
2019-02-14T07:21:09.661Z,95569.34
2019-02-14T07:23:37.491Z,95574.31
2019-02-14T07:26:05.389Z,95571.17
2019-02-14T07:28:34.479Z,95580.40
2019-02-14T07:31:02.463Z,95576.89
2019-02-14T07:33:30.433Z,95584.56
2019-02-14T07:35:58.376Z,95583.97
2019-02-14T07:38:26.293Z,95578.83
2019-02-14T07:40:54.104Z,95581.56
2019-02-14T07:43:21.977Z,95579.97
2019-02-14T07:45:49.831Z,95580.30
2019-02-14T07:48:17.749Z,95579.52
2019-02-14T07:50:45.623Z,95585.49
2019-02-14T07:53:13.466Z,95589.56
2019-02-14T07:55:41.293Z,95596.73
2019-02-14T07:58:09.243Z,95586.44
2019-02-14T08:00:37.084Z,95587.56
2019-02-14T08:03:04.936Z,95581.34
2019-02-14T08:05:32.859Z,95581.58
2019-02-14T08:08:01.178Z,95581.36
2019-02-14T08:10:29.015Z,95578.76
2019-02-14T08:12:56.889Z,95575.41
2019-02-14T08:15:24.773Z,95577.16
2019-02-14T08:17:52.633Z,95578.14
2019-02-14T08:20:20.537Z,95573.58
2019-02-14T08:22:48.367Z,95582.00
2019-02-14T08:25:16.495Z,95569.32
2019-02-14T08:27:44.345Z,95569.73
2019-02-14T08:30:13.894Z,95571.06
2019-02-14T08:32:41.848Z,95560.64
2019-02-14T08:35:09.739Z,95566.87
2019-02-14T08:37:45.093Z,95558.34
2019-02-14T08:40:11.325Z,95553.38
2019-02-14T08:42:39.211Z,95560.95
2019-02-14T08:45:08.785Z,95552.73
2019-02-14T08:47:36.620Z,95561.66
2019-02-14T08:50:05.067Z,95561.09
2019-02-14T08:52:33.208Z,95559.48
2019-02-14T08:55:01.134Z,95560.73
2019-02-14T08:57:29.008Z,95564.12
2019-02-14T08:59:56.879Z,95563.89
2019-02-14T09:02:27.280Z,95561.91
2019-02-14T09:04:55.440Z,95555.34
2019-02-14T09:07:23.329Z,95552.55
2019-02-14T09:09:51.189Z,95555.22
2019-02-14T09:12:19.104Z,95561.48
2019-02-14T09:14:46.958Z,95564.16
2019-02-14T09:17:14.843Z,95566.80
2019-02-14T09:19:42.671Z,95566.25
2019-02-14T09:22:10.581Z,95565.73
2019-02-14T09:24:38.460Z,95564.02
2019-02-14T09:27:06.444Z,95555.20
2019-02-14T09:29:34.269Z,95557.34
2019-02-14T09:32:02.196Z,95557.44
2019-02-14T09:34:30.111Z,95567.97
2019-02-14T09:36:57.958Z,95566.88
2019-02-14T09:39:25.875Z,95569.09
2019-02-14T09:41:53.805Z,95566.13
2019-02-14T09:44:21.671Z,95565.87
2019-02-14T09:46:49.568Z,95553.59
2019-02-14T09:49:17.438Z,95558.89
2019-02-14T09:51:45.322Z,95559.89
2019-02-14T09:54:13.168Z,95561.39
2019-02-14T09:56:41.098Z,95559.83
2019-02-14T09:59:09.022Z,95559.42
2019-02-14T10:01:36.878Z,95556.31
2019-02-14T10:04:04.886Z,95554.80
2019-02-14T10:06:36.675Z,95553.86
2019-02-14T10:09:05.038Z,95546.84
2019-02-14T10:11:32.908Z,95545.43
2019-02-14T10:14:00.773Z,95559.05
2019-02-14T10:16:28.744Z,95560.91
2019-02-14T10:18:56.732Z,95553.20
2019-02-14T10:21:24.616Z,95556.91
2019-02-14T10:23:52.587Z,95556.92
2019-02-14T10:26:20.538Z,95559.11
2019-02-14T10:28:48.431Z,95571.23
2019-02-14T10:31:16.331Z,95563.25
2019-02-14T10:33:44.245Z,95564.72
2019-02-14T10:36:12.156Z,95570.49
2019-02-14T10:38:40.028Z,95568.14
2019-02-14T10:41:07.887Z,95562.02
2019-02-14T10:43:35.710Z,95562.28
2019-02-14T10:46:03.622Z,95555.81
2019-02-14T10:48:31.458Z,95565.83
2019-02-14T10:50:59.431Z,95562.73
2019-02-14T10:53:27.334Z,95562.25
2019-02-14T10:55:55.258Z,95560.39
2019-02-14T10:58:23.122Z,95553.70
2019-02-14T11:00:50.974Z,95549.84
2019-02-14T11:03:19.000Z,95556.30
2019-02-14T11:05:46.871Z,95549.09
2019-02-14T11:08:14.778Z,95545.77
2019-02-14T11:10:42.670Z,95543.84
2019-02-14T11:13:10.526Z,95547.31
2019-02-14T11:15:38.465Z,95538.80
2019-02-14T11:18:06.457Z,95541.59
2019-02-14T11:20:34.427Z,95547.38
2019-02-14T11:23:02.632Z,95534.52
2019-02-14T11:25:32.247Z,95541.25
2019-02-14T11:28:00.147Z,95536.11
2019-02-14T11:30:28.045Z,95533.76
2019-02-14T11:32:55.934Z,95536.63
2019-02-14T11:35:23.835Z,95532.27
2019-02-14T11:37:51.681Z,95522.53
2019-02-14T11:40:19.575Z,95525.61
2019-02-14T11:42:47.481Z,95514.34
2019-02-14T11:45:17.679Z,95515.69
2019-02-14T11:47:45.542Z,95516.28
2019-02-14T11:50:13.417Z,95516.28
2019-02-14T11:52:41.467Z,95519.43
2019-02-14T11:55:09.528Z,95514.41
2019-02-14T11:57:37.423Z,95518.51
2019-02-14T12:00:09.758Z,95511.06
2019-02-14T12:02:38.007Z,95512.98
2019-02-14T12:05:06.496Z,95511.66
2019-02-14T12:07:34.360Z,95517.09
2019-02-14T12:10:02.295Z,95513.98
2019-02-14T12:12:30.501Z,95499.33
2019-02-14T12:14:58.374Z,95501.03
2019-02-14T12:17:26.352Z,95510.78
2019-02-14T12:19:54.214Z,95499.81
2019-02-14T12:22:22.136Z,95497.20
2019-02-14T12:24:50.032Z,95495.73
2019-02-14T12:27:17.920Z,95494.83
2019-02-14T12:29:45.770Z,95494.32
2019-02-14T12:32:13.685Z,95487.64
2019-02-14T12:34:41.568Z,95479.96
2019-02-14T12:37:09.471Z,95481.01
2019-02-14T12:39:37.394Z,95483.00
2019-02-14T12:42:05.345Z,95479.20
2019-02-14T12:44:33.267Z,95474.47
2019-02-14T12:47:01.280Z,95476.17
2019-02-14T12:49:29.172Z,95477.44
2019-02-14T12:51:57.103Z,95471.88
2019-02-14T12:54:25.079Z,95468.85
2019-02-14T12:56:53.236Z,95467.72
2019-02-14T12:59:21.148Z,95461.89
2019-02-14T13:01:49.025Z,95458.16
2019-02-14T13:04:17.129Z,95459.58
2019-02-14T13:06:45.077Z,95460.13
2019-02-14T13:09:20.055Z,95463.63
2019-02-14T13:11:44.411Z,95463.53
2019-02-14T13:14:12.287Z,95457.91
2019-02-14T13:16:40.175Z,95451.27
2019-02-14T13:19:08.060Z,95451.92
2019-02-14T13:21:35.944Z,95447.09
2019-02-14T13:24:03.825Z,95451.97
2019-02-14T13:26:31.792Z,95444.94
2019-02-14T13:28:59.648Z,95443.39
2019-02-14T13:31:31.973Z,95444.52
2019-02-14T13:33:57.808Z,95444.00
2019-02-14T13:36:25.676Z,95442.09
2019-02-14T13:38:53.588Z,95427.83
2019-02-14T13:41:30.680Z,95424.91
2019-02-14T13:43:51.227Z,95429.81
2019-02-14T13:46:19.323Z,95431.36
2019-02-14T13:48:47.192Z,95426.36
2019-02-14T13:51:15.086Z,95422.06
2019-02-14T13:53:43.009Z,95426.45
2019-02-14T13:56:10.873Z,95427.28
2019-02-14T13:58:38.773Z,95431.61
2019-02-14T14:01:06.808Z,95433.88
2019-02-14T14:03:35.048Z,95432.22
2019-02-14T14:06:02.975Z,95430.83
2019-02-14T14:08:30.847Z,95429.25
2019-02-14T14:10:58.825Z,95424.43
2019-02-14T14:13:26.714Z,95426.13
2019-02-14T14:15:54.869Z,95420.92
2019-02-14T14:18:22.755Z,95423.17
2019-02-14T14:20:50.701Z,95418.09
2019-02-14T14:23:19.932Z,95420.77
2019-02-14T14:25:47.948Z,95412.19
2019-02-14T14:28:15.860Z,95410.61
2019-02-14T14:30:43.737Z,95409.62
2019-02-14T14:33:11.612Z,95411.56
2019-02-14T14:35:39.489Z,95404.97
2019-02-14T14:38:07.383Z,95404.51
2019-02-14T14:40:35.307Z,95405.14
2019-02-14T14:43:32.076Z,95401.31
2019-02-14T14:46:28.641Z,95407.58
2019-02-14T14:48:56.548Z,95406.41
2019-02-14T14:51:24.611Z,95405.11
2019-02-14T14:53:52.439Z,95406.05
2019-02-14T14:56:20.367Z,95403.41
2019-02-14T14:58:52.854Z,95395.63
2019-02-14T15:01:20.744Z,95394.80
2019-02-14T15:03:48.663Z,95398.27
2019-02-14T15:06:16.530Z,95392.26
2019-02-14T15:08:44.520Z,95392.98
2019-02-14T15:11:12.429Z,95391.66
2019-02-14T15:13:40.326Z,95390.66
2019-02-14T15:16:08.254Z,95386.43
2019-02-14T15:18:36.179Z,95386.43
2019-02-14T15:21:04.078Z,95385.48
2019-02-14T15:23:32.024Z,95392.05
2019-02-14T15:25:59.913Z,95391.42
2019-02-14T15:28:27.784Z,95385.51
2019-02-14T15:30:55.696Z,95389.16
2019-02-14T15:33:23.626Z,95383.86
2019-02-14T15:35:51.536Z,95382.37
2019-02-14T15:38:19.391Z,95387.00
2019-02-14T15:40:47.309Z,95384.91
2019-02-14T15:43:15.145Z,95380.96
2019-02-14T15:45:43.049Z,95383.27
2019-02-14T15:48:12.988Z,95380.97
2019-02-14T15:50:41.127Z,95381.63
2019-02-14T15:53:09.012Z,95382.95
2019-02-14T15:55:38.841Z,95382.14
2019-02-14T15:58:09.078Z,95372.09
2019-02-14T16:00:36.585Z,95365.52
2019-02-14T16:03:04.510Z,95370.44
2019-02-14T16:05:34.874Z,95372.77
2019-02-14T16:08:04.736Z,95371.61
2019-02-14T16:10:34.651Z,95367.81
2019-02-14T16:13:02.641Z,95373.73
2019-02-14T16:15:31.088Z,95373.41
2019-02-14T16:18:01.648Z,95370.44
2019-02-14T16:20:29.749Z,95377.02
2019-02-14T16:22:57.698Z,95383.85
2019-02-14T16:25:26.391Z,95387.80
2019-02-14T16:27:55.563Z,95386.30
2019-02-14T16:30:23.492Z,95389.41
2019-02-14T16:32:51.412Z,95384.80
2019-02-14T16:35:19.454Z,95384.76
2019-02-14T16:37:49.957Z,95383.66
2019-02-14T16:40:17.227Z,95380.14
2019-02-14T16:42:45.177Z,95385.72
2019-02-14T16:45:13.080Z,95393.20
2019-02-14T16:47:40.993Z,95396.68
2019-02-14T16:50:09.011Z,95401.58
2019-02-14T16:52:36.942Z,95401.41
2019-02-14T16:55:05.106Z,95410.25
2019-02-14T16:57:33.082Z,95409.88
2019-02-14T17:00:00.912Z,95415.39
2019-02-14T17:02:28.915Z,95414.19
2019-02-14T17:04:57.898Z,95409.33
2019-02-14T17:07:25.829Z,95406.56
2019-02-14T17:09:56.290Z,95403.53
2019-02-14T17:12:24.202Z,95408.28
2019-02-14T17:14:52.105Z,95415.45
2019-02-14T17:17:27.722Z,95420.22
2019-02-14T17:19:50.183Z,95412.64
2019-02-14T17:22:18.134Z,95421.03
2019-02-14T17:24:46.058Z,95417.33
2019-02-14T17:27:14.106Z,95419.80
2019-02-14T17:29:42.062Z,95418.48
2019-02-14T17:32:09.975Z,95418.80
2019-02-14T17:34:37.883Z,95424.06
2019-02-14T17:37:05.772Z,95430.89
2019-02-14T17:39:33.672Z,95436.45
2019-02-14T17:42:01.577Z,95432.22
2019-02-14T17:44:29.454Z,95433.02
2019-02-14T17:46:57.413Z,95442.05
2019-02-14T17:49:25.297Z,95428.41
2019-02-14T17:51:53.143Z,95428.76
2019-02-14T17:54:21.089Z,95423.89
2019-02-14T17:56:48.969Z,95422.34
2019-02-14T17:59:16.878Z,95434.08
2019-02-14T18:01:44.803Z,95430.09
2019-02-14T18:04:12.749Z,95426.34
2019-02-14T18:06:40.647Z,95434.53
2019-02-14T18:09:08.910Z,95433.81
2019-02-14T18:11:36.841Z,95432.60
2019-02-14T18:14:04.734Z,95436.23
2019-02-14T18:16:32.678Z,95433.13
2019-02-14T18:19:01.080Z,95435.05
2019-02-14T18:21:28.990Z,95443.66
2019-02-14T18:23:57.052Z,95443.66
2019-02-14T18:26:25.354Z,95439.75
2019-02-14T18:28:53.283Z,95437.63
2019-02-14T18:31:21.205Z,95429.43
2019-02-14T18:33:49.157Z,95428.08
2019-02-14T18:36:17.069Z,95436.53
2019-02-14T18:38:45.265Z,95424.95
2019-02-14T18:41:13.175Z,95433.53
2019-02-14T18:43:41.035Z,95431.96
2019-02-14T18:46:08.962Z,95440.05
2019-02-14T18:48:36.934Z,95437.70
2019-02-14T18:51:05.026Z,95431.44
2019-02-14T18:53:33.033Z,95426.13
2019-02-14T18:56:04.297Z,95430.14
2019-02-14T18:58:32.163Z,95435.59
2019-02-14T19:01:00.095Z,95445.52
2019-02-14T19:03:28.015Z,95441.64
2019-02-14T19:05:55.912Z,95442.91
2019-02-14T19:08:23.811Z,95436.99
2019-02-14T19:10:52.695Z,95438.59
2019-02-14T19:13:20.874Z,95440.34
2019-02-14T19:15:48.797Z,95445.19
2019-02-14T19:18:16.680Z,95445.45
2019-02-14T19:20:44.681Z,95454.07
2019-02-14T19:23:23.294Z,95449.13
2019-02-14T19:25:42.529Z,95446.55
2019-02-14T19:28:10.452Z,95443.08
2019-02-14T19:30:38.387Z,95438.81
2019-02-14T19:33:06.402Z,95443.20
2019-02-14T19:35:34.275Z,95446.20
2019-02-14T19:38:02.468Z,95443.69
2019-02-14T19:40:30.371Z,95444.65
2019-02-14T19:42:58.351Z,95437.18
2019-02-14T19:45:36.051Z,95433.28
2019-02-14T19:47:56.097Z,95432.08
2019-02-14T19:50:24.013Z,95426.73
2019-02-14T19:52:52.046Z,95426.70
2019-02-14T19:55:19.980Z,95430.25
2019-02-14T19:57:47.966Z,95428.45
2019-02-14T20:00:15.988Z,95427.52
2019-02-14T20:02:43.923Z,95425.00
2019-02-14T20:05:11.848Z,95422.40
2019-02-14T20:07:39.879Z,95414.45
2019-02-14T20:10:09.676Z,95415.39
2019-02-14T20:12:37.603Z,95419.20
2019-02-14T20:15:09.016Z,95421.05
2019-02-14T20:17:36.944Z,95421.43
2019-02-14T20:20:06.306Z,95417.28
2019-02-14T20:22:34.223Z,95422.75
2019-02-14T20:25:03.495Z,95418.00
2019-02-14T20:27:31.389Z,95422.80
2019-02-14T20:29:59.267Z,95412.39
2019-02-14T20:32:27.221Z,95422.98
2019-02-14T20:34:55.150Z,95426.25
2019-02-14T20:37:23.033Z,95425.31
2019-02-14T20:39:50.986Z,95420.44
2019-02-14T20:42:18.885Z,95422.44
2019-02-14T20:44:47.045Z,95421.76
2019-02-14T20:47:14.936Z,95415.43
2019-02-14T20:49:43.247Z,95417.73
2019-02-14T20:52:11.199Z,95410.19
2019-02-14T20:54:39.126Z,95408.98
2019-02-14T20:57:07.016Z,95401.42
2019-02-14T20:59:35.011Z,95400.98
2019-02-14T21:02:04.084Z,95404.17
2019-02-14T21:04:32.134Z,95400.88
2019-02-14T21:07:00.034Z,95407.41
2019-02-14T21:09:27.985Z,95413.20
2019-02-14T21:11:55.882Z,95401.49
2019-02-14T21:14:23.797Z,95403.51
2019-02-14T21:16:51.727Z,95403.64
2019-02-14T21:19:19.614Z,95404.58
2019-02-14T21:21:47.515Z,95405.97
2019-02-14T21:24:15.731Z,95403.11
2019-02-14T21:26:43.726Z,95409.29
2019-02-14T21:29:11.834Z,95400.41
2019-02-14T21:31:39.760Z,95403.96
2019-02-14T21:34:07.655Z,95404.22
2019-02-14T21:36:35.600Z,95402.80
2019-02-14T21:39:04.618Z,95396.00
2019-02-14T21:41:32.594Z,95397.47
2019-02-14T21:44:00.682Z,95404.69
2019-02-14T21:46:28.883Z,95408.03
2019-02-14T21:48:56.732Z,95412.72
2019-02-14T21:51:24.790Z,95402.41
2019-02-14T21:53:52.672Z,95399.11
2019-02-14T21:56:20.614Z,95411.88
2019-02-14T21:58:48.752Z,95407.77
2019-02-14T22:01:18.861Z,95406.09
2019-02-14T22:03:47.054Z,95398.88
2019-02-14T22:06:14.895Z,95399.48
2019-02-14T22:08:43.031Z,95392.42
2019-02-14T22:11:10.925Z,95389.59
2019-02-14T22:13:39.084Z,95394.45
2019-02-14T22:16:07.111Z,95385.37
2019-02-14T22:18:35.035Z,95386.45
2019-02-14T22:21:03.010Z,95389.75
2019-02-14T22:23:31.097Z,95388.13
2019-02-14T22:25:59.047Z,95385.38
2019-02-14T22:28:26.955Z,95385.64
2019-02-14T22:30:54.915Z,95385.16
2019-02-14T22:33:22.818Z,95385.02
2019-02-14T22:35:50.734Z,95390.56
2019-02-14T22:38:18.598Z,95392.70
2019-02-14T22:40:47.438Z,95385.84
2019-02-14T22:43:15.410Z,95391.14
2019-02-14T22:45:43.298Z,95390.81
2019-02-14T22:48:11.241Z,95397.31
2019-02-14T22:50:39.129Z,95393.74
2019-02-14T22:53:06.991Z,95391.77
2019-02-14T22:55:34.885Z,95381.02
2019-02-14T22:58:02.740Z,95380.65
2019-02-14T23:00:46.773Z,95379.96
2019-02-14T23:03:14.995Z,95382.05
2019-02-14T23:05:43.050Z,95389.01
2019-02-14T23:08:10.835Z,95389.37
2019-02-14T23:10:39.194Z,95393.22
2019-02-14T23:13:07.056Z,95399.08
2019-02-14T23:15:34.846Z,95406.48
2019-02-14T23:18:02.976Z,95394.83
2019-02-14T23:20:30.776Z,95400.86
2019-02-14T23:22:58.612Z,95398.05
2019-02-14T23:25:26.406Z,95398.88
2019-02-14T23:27:54.229Z,95405.17
2019-02-14T23:30:22.040Z,95401.95
2019-02-14T23:32:49.856Z,95409.61
2019-02-14T23:35:17.646Z,95407.29
2019-02-14T23:37:45.444Z,95394.31
2019-02-14T23:40:13.254Z,95393.56
2019-02-14T23:42:41.065Z,95390.15
2019-02-14T23:45:09.209Z,95389.34
2019-02-14T23:47:37.021Z,95390.08
2019-02-14T23:50:04.887Z,95387.70
2019-02-14T23:52:32.697Z,95384.07
2019-02-14T23:55:00.491Z,95378.42
2019-02-14T23:57:28.303Z,95376.42
2019-02-14T23:59:56.089Z,95378.84
